BAW237 EBBR-EGLL
Flight info
| Callsign | BAW237 |
|---|---|
| Flight time | N/A |
| Altitude | 24000 |
| Route | HELEN L179 COA L608 LOGAN |
| Aircraft | A20N/M-SDE2E3FGHIRWXY/LB1 |
Departure
| Time | 2026-05-07 20:36 |
|---|---|
| Airport | Brussels Airport (EBBR) |
Arrival
| Time | N/A |
|---|---|
| Airport | London Heathrow Airport (EGLL) |
| Time | Latitude | Longitude | Altitude | Speed | Heading |
|---|---|---|---|---|---|
| 2026-05-07 20:03 | 50.90492 | 4.48901 | 116 ft | 0 kts | 155° |
| 2026-05-07 20:27 | 50.90494 | 4.48900 | 120 ft | 3 kts | 155° |
| 2026-05-07 20:27 | 50.90518 | 4.48882 | 103 ft | 4 kts | 154° |
| 2026-05-07 20:27 | 50.90542 | 4.48862 | 129 ft | 4 kts | 149° |
| 2026-05-07 20:28 | 50.90563 | 4.48837 | 115 ft | 4 kts | 124° |
| 2026-05-07 20:28 | 50.90569 | 4.48812 | 118 ft | 0 kts | 65° |
| 2026-05-07 20:33 | 50.90581 | 4.48855 | 117 ft | 12 kts | 65° |
| 2026-05-07 20:33 | 50.90628 | 4.49018 | 117 ft | 19 kts | 66° |
| 2026-05-07 20:33 | 50.90686 | 4.49216 | 118 ft | 21 kts | 65° |
| 2026-05-07 20:33 | 50.90748 | 4.49434 | 121 ft | 22 kts | 66° |
| 2026-05-07 20:34 | 50.90815 | 4.49665 | 123 ft | 24 kts | 66° |
| 2026-05-07 20:34 | 50.90928 | 4.49799 | 123 ft | 11 kts | 10° |
| 2026-05-07 20:34 | 50.90940 | 4.49805 | 123 ft | 3 kts | 23° |
| 2026-05-07 20:34 | 50.90993 | 4.49867 | 118 ft | 16 kts | 34° |
| 2026-05-07 20:35 | 50.91117 | 4.49940 | 119 ft | 20 kts | 340° |
| 2026-05-07 20:35 | 50.91113 | 4.49789 | 117 ft | 16 kts | 237° |
| 2026-05-07 20:35 | 50.91082 | 4.49692 | 116 ft | 0 kts | 245° |
| 2026-05-07 20:35 | 50.91080 | 4.49682 | 117 ft | 10 kts | 245° |
| 2026-05-07 20:36 | 50.90941 | 4.49195 | 118 ft | 84 kts | 245° |
| 2026-05-07 20:36 | 50.90613 | 4.48066 | 121 ft | 139 kts | 245° |
| 2026-05-07 20:36 | 50.90175 | 4.46527 | 425 ft | 154 kts | 252° |
| 2026-05-07 20:36 | 50.90105 | 4.44859 | 980 ft | 156 kts | 283° |
| 2026-05-07 20:37 | 50.90489 | 4.43264 | 1624 ft | 155 kts | 300° |
| 2026-05-07 20:37 | 50.91074 | 4.41802 | 2137 ft | 164 kts | 306° |
| 2026-05-07 20:37 | 50.91795 | 4.40271 | 2530 ft | 183 kts | 308° |
| 2026-05-07 20:37 | 50.92614 | 4.38585 | 2962 ft | 205 kts | 308° |
| 2026-05-07 20:38 | 50.93531 | 4.36673 | 3471 ft | 229 kts | 308° |
| 2026-05-07 20:38 | 50.94532 | 4.34569 | 4140 ft | 250 kts | 310° |
| 2026-05-07 20:38 | 50.95760 | 4.32459 | 4866 ft | 268 kts | 314° |
| 2026-05-07 20:38 | 50.97066 | 4.30330 | 5916 ft | 270 kts | 314° |
| 2026-05-07 20:39 | 50.98386 | 4.28201 | 7024 ft | 272 kts | 314° |
| 2026-05-07 20:39 | 50.99723 | 4.26042 | 8015 ft | 277 kts | 314° |
| 2026-05-07 20:39 | 51.01081 | 4.23840 | 9038 ft | 281 kts | 313° |
| 2026-05-07 20:39 | 51.02455 | 4.21603 | 10053 ft | 285 kts | 313° |
| 2026-05-07 20:40 | 51.03873 | 4.19291 | 10718 ft | 302 kts | 313° |
| 2026-05-07 20:40 | 51.05393 | 4.16805 | 11111 ft | 325 kts | 313° |
| 2026-05-07 20:40 | 51.07012 | 4.14158 | 11672 ft | 339 kts | 313° |
| 2026-05-07 20:40 | 51.08667 | 4.11452 | 12572 ft | 343 kts | 313° |
| 2026-05-07 20:41 | 51.10345 | 4.08706 | 13467 ft | 348 kts | 313° |
| 2026-05-07 20:41 | 51.12043 | 4.05924 | 14298 ft | 352 kts | 313° |
| 2026-05-07 20:41 | 51.13756 | 4.03111 | 15113 ft | 356 kts | 313° |
| 2026-05-07 20:41 | 51.15485 | 4.00269 | 15913 ft | 359 kts | 313° |
| 2026-05-07 20:42 | 51.17233 | 3.97393 | 16709 ft | 363 kts | 312° |
| 2026-05-07 20:42 | 51.18740 | 3.94181 | 17461 ft | 364 kts | 296° |
| 2026-05-07 20:42 | 51.19817 | 3.90510 | 18231 ft | 367 kts | 292° |
| 2026-05-07 20:42 | 51.20820 | 3.86734 | 18922 ft | 370 kts | 291° |
| 2026-05-07 20:43 | 51.21823 | 3.82931 | 19623 ft | 373 kts | 291° |
| 2026-05-07 20:43 | 51.22846 | 3.79120 | 20308 ft | 376 kts | 292° |
| 2026-05-07 20:43 | 51.23893 | 3.75281 | 20997 ft | 379 kts | 292° |
| 2026-05-07 20:43 | 51.24958 | 3.71417 | 21657 ft | 382 kts | 292° |
| 2026-05-07 20:44 | 51.26032 | 3.67528 | 22310 ft | 385 kts | 292° |
| 2026-05-07 20:44 | 51.27116 | 3.63606 | 22969 ft | 388 kts | 292° |
| 2026-05-07 20:44 | 51.28208 | 3.59645 | 23627 ft | 391 kts | 292° |
| 2026-05-07 20:44 | 51.29309 | 3.55648 | 23763 ft | 393 kts | 292° |
| 2026-05-07 20:45 | 51.30406 | 3.51657 | 23850 ft | 393 kts | 292° |
| 2026-05-07 20:45 | 51.31503 | 3.47656 | 23956 ft | 393 kts | 292° |
| 2026-05-07 20:45 | 51.32599 | 3.43652 | 24053 ft | 394 kts | 292° |
| 2026-05-07 20:45 | 51.33695 | 3.39642 | 24075 ft | 394 kts | 292° |
| 2026-05-07 20:46 | 51.34787 | 3.35623 | 24074 ft | 393 kts | 291° |
| 2026-05-07 20:46 | 51.35758 | 3.31536 | 24077 ft | 393 kts | 289° |
| 2026-05-07 20:46 | 51.36725 | 3.27453 | 24076 ft | 393 kts | 289° |
| 2026-05-07 20:46 | 51.37697 | 3.23366 | 24078 ft | 393 kts | 289° |
| 2026-05-07 20:47 | 51.38668 | 3.19276 | 24082 ft | 393 kts | 289° |
| 2026-05-07 20:47 | 51.39636 | 3.15187 | 24078 ft | 393 kts | 289° |
| 2026-05-07 20:47 | 51.40602 | 3.11094 | 24080 ft | 393 kts | 289° |
| 2026-05-07 20:47 | 51.41566 | 3.07001 | 24080 ft | 393 kts | 289° |
| 2026-05-07 20:48 | 51.42531 | 3.02901 | 24077 ft | 393 kts | 289° |
| 2026-05-07 20:48 | 51.43492 | 2.98808 | 24081 ft | 393 kts | 289° |
| 2026-05-07 20:48 | 51.44453 | 2.94708 | 24081 ft | 393 kts | 289° |
| 2026-05-07 20:48 | 51.45412 | 2.90609 | 24079 ft | 393 kts | 289° |
| 2026-05-07 20:49 | 51.46369 | 2.86508 | 24087 ft | 393 kts | 289° |
| 2026-05-07 20:49 | 51.47325 | 2.82405 | 24083 ft | 393 kts | 289° |
| 2026-05-07 20:49 | 51.48281 | 2.78295 | 24084 ft | 393 kts | 289° |
| 2026-05-07 20:49 | 51.49234 | 2.74189 | 24084 ft | 393 kts | 289° |
| 2026-05-07 20:50 | 51.50188 | 2.70072 | 24082 ft | 393 kts | 289° |
| 2026-05-07 20:50 | 51.51139 | 2.65962 | 24083 ft | 393 kts | 289° |
| 2026-05-07 20:50 | 51.52089 | 2.61846 | 24082 ft | 393 kts | 289° |
| 2026-05-07 20:50 | 51.53037 | 2.57729 | 24084 ft | 393 kts | 289° |
| 2026-05-07 20:51 | 51.53983 | 2.53614 | 24086 ft | 393 kts | 289° |
| 2026-05-07 20:51 | 51.54929 | 2.49493 | 24094 ft | 393 kts | 289° |
| 2026-05-07 20:51 | 51.55870 | 2.45381 | 24087 ft | 392 kts | 289° |
| 2026-05-07 20:51 | 51.56809 | 2.41267 | 24086 ft | 392 kts | 289° |
| 2026-05-07 20:52 | 51.57751 | 2.37135 | 24084 ft | 393 kts | 288° |
| 2026-05-07 20:52 | 51.58690 | 2.33010 | 24083 ft | 393 kts | 288° |
| 2026-05-07 20:52 | 51.59630 | 2.28881 | 24086 ft | 393 kts | 288° |
| 2026-05-07 20:52 | 51.60569 | 2.24753 | 24092 ft | 393 kts | 288° |
| 2026-05-07 20:53 | 51.61508 | 2.20617 | 24089 ft | 393 kts | 288° |
| 2026-05-07 20:53 | 51.62444 | 2.16486 | 24089 ft | 393 kts | 288° |
| 2026-05-07 20:53 | 51.63379 | 2.12348 | 24089 ft | 393 kts | 288° |
| 2026-05-07 20:53 | 51.64311 | 2.08215 | 24088 ft | 393 kts | 288° |
| 2026-05-07 20:54 | 51.65241 | 2.04078 | 24091 ft | 393 kts | 288° |
| 2026-05-07 20:54 | 51.65856 | 2.01333 | 24091 ft | 393 kts | 288° |
| 2026-05-07 20:54 | 51.66781 | 1.97197 | 24091 ft | 393 kts | 288° |
| 2026-05-07 20:54 | 51.67708 | 1.93047 | 24097 ft | 393 kts | 288° |
| 2026-05-07 20:55 | 51.68636 | 1.88887 | 24092 ft | 395 kts | 288° |
| 2026-05-07 20:55 | 51.69562 | 1.84722 | 24091 ft | 395 kts | 288° |
| 2026-05-07 20:55 | 51.70488 | 1.80554 | 24100 ft | 395 kts | 288° |
| 2026-05-07 20:55 | 51.71411 | 1.76386 | 24100 ft | 395 kts | 288° |
| 2026-05-07 20:56 | 51.72333 | 1.72219 | 24100 ft | 394 kts | 288° |
| 2026-05-07 20:56 | 51.73254 | 1.68047 | 24099 ft | 394 kts | 288° |
| 2026-05-07 20:56 | 51.74043 | 1.63822 | 24099 ft | 393 kts | 281° |
| 2026-05-07 20:56 | 51.74420 | 1.59468 | 24100 ft | 392 kts | 272° |
| 2026-05-07 20:57 | 51.74379 | 1.55081 | 24100 ft | 391 kts | 264° |
| 2026-05-07 20:57 | 51.74086 | 1.50719 | 24055 ft | 390 kts | 263° |
| 2026-05-07 20:57 | 51.73803 | 1.46369 | 23629 ft | 391 kts | 263° |
| 2026-05-07 20:57 | 51.73522 | 1.41979 | 22653 ft | 397 kts | 263° |
| 2026-05-07 20:58 | 51.73234 | 1.37506 | 21638 ft | 403 kts | 263° |
| 2026-05-07 20:58 | 51.72943 | 1.33035 | 21049 ft | 397 kts | 263° |
| 2026-05-07 20:58 | 51.72658 | 1.28673 | 20648 ft | 386 kts | 263° |
| 2026-05-07 20:58 | 51.72375 | 1.24388 | 20031 ft | 382 kts | 263° |
| 2026-05-07 20:59 | 51.72092 | 1.20134 | 19393 ft | 380 kts | 263° |
| 2026-05-07 20:59 | 51.71811 | 1.15941 | 18975 ft | 372 kts | 263° |
| 2026-05-07 20:59 | 51.71532 | 1.11804 | 18270 ft | 372 kts | 263° |
| 2026-05-07 20:59 | 51.71251 | 1.07650 | 17595 ft | 370 kts | 263° |
| 2026-05-07 21:00 | 51.70975 | 1.03583 | 17228 ft | 360 kts | 263° |
| 2026-05-07 21:00 | 51.70705 | 0.99625 | 16842 ft | 352 kts | 262° |
| 2026-05-07 21:00 | 51.70435 | 0.95697 | 16506 ft | 352 kts | 262° |
| 2026-05-07 21:00 | 51.70163 | 0.91759 | 16400 ft | 355 kts | 262° |
| 2026-05-07 21:01 | 51.69887 | 0.87794 | 16300 ft | 356 kts | 262° |
| 2026-05-07 21:01 | 51.69613 | 0.83870 | 16192 ft | 346 kts | 262° |
| 2026-05-07 21:01 | 51.69349 | 0.80092 | 16090 ft | 332 kts | 262° |
| 2026-05-07 21:01 | 51.69096 | 0.76486 | 15982 ft | 318 kts | 262° |
| 2026-05-07 21:02 | 51.68852 | 0.73023 | 15878 ft | 304 kts | 262° |
| 2026-05-07 21:02 | 51.68617 | 0.69709 | 15769 ft | 291 kts | 262° |
| 2026-05-07 21:02 | 51.68393 | 0.66558 | 15651 ft | 274 kts | 262° |
| 2026-05-07 21:02 | 51.68182 | 0.63594 | 15545 ft | 264 kts | 261° |
| 2026-05-07 21:03 | 51.67966 | 0.60620 | 15468 ft | 270 kts | 261° |
| 2026-05-07 21:03 | 51.67748 | 0.57616 | 15364 ft | 269 kts | 261° |
| 2026-05-07 21:03 | 51.67530 | 0.54621 | 14896 ft | 269 kts | 261° |
| 2026-05-07 21:03 | 51.67313 | 0.51626 | 14380 ft | 269 kts | 261° |
| 2026-05-07 21:04 | 51.67096 | 0.48646 | 13865 ft | 268 kts | 261° |
| 2026-05-07 21:04 | 51.66879 | 0.45675 | 13289 ft | 266 kts | 261° |